FNKU

Kuito Airport

Kuito, Angola
METAR FNKU 230700Z 12010KT CAVOK 17/11 Q1025
Observed Flight Rules
May-23 @ 07:00 UTC (2 hours ago) Visual Flight Rules
Wind Visibility Clouds
120° at 10 knots 10,000+ meters
  • Clear skies
Temperatures Readings
Current 17°C / 63°F
Dewpoint 11°C / 52°F
Humidity 68%
Altimeter 30.27" Hg
Pressure 1025 hPa
Elevation 1699
METAR FNKU 230700Z 12010KT CAVOK 17/11 Q1025
Observed Flight Rules
May-23 @ 07:00 UTC
(2 hours ago)
VFR
Wind Visibility
120° at 10 knots 10,000+ meters
Clouds
  • Clear skies
Temperature Dewpoint
17°C / 63°F 11°C / 52°F
Humidity Altimeter Pressure
68% 30.27" Hg 1025 hPa